Time;durP1;ratioP1;P1;durP2;ratioP2;P2;SDS_P1;SDS_P2;PMS_P1;PMS_P2;Temp;Humidity;BMP_temperature;BMP_pressure;BME280_temperature;BME280_humidity;BME280_pressure;Samples;Min_cycle;Max_cycle;Signal;HPM_P1;HPM_P2
2022/09/22 00:01:10;;;;;;;8.90;6.47;;;10.10;99.90;;;;;;4971177;28;20068;-73
2022/09/22 00:03:39;;;;;;;8.48;5.97;;;10.10;99.90;;;;;;4955350;28;20123;-73
2022/09/22 00:06:10;;;;;;;7.78;5.82;;;10.10;99.90;;;;;;4970976;28;20332;-72
2022/09/22 00:08:38;;;;;;;8.40;6.10;;;10.10;99.90;;;;;;4971286;28;20061;-73
2022/09/22 00:11:18;;;;;;;11.93;6.55;;;10.10;99.90;;;;;;4971889;28;20051;-72
2022/09/22 00:13:49;;;;;;;8.80;5.50;;;10.10;99.90;;;;;;4972051;28;20039;-73
2022/09/22 00:16:16;;;;;;;8.65;5.60;;;10.10;99.90;;;;;;4971711;28;20101;-73
2022/09/22 00:18:42;;;;;;;9.32;6.30;;;10.10;99.90;;;;;;4971079;28;20126;-72
2022/09/22 00:21:17;;;;;;;14.10;9.30;;;10.10;99.90;;;;;;4970445;28;20130;-73
2022/09/22 00:23:45;;;;;;;11.95;8.20;;;10.10;99.90;;;;;;4971955;28;20051;-73
2022/09/22 00:26:14;;;;;;;13.25;9.02;;;10.10;99.90;;;;;;4971596;28;20137;-72
2022/09/22 00:28:41;;;;;;;12.52;8.57;;;10.10;99.90;;;;;;4970802;28;20043;-73
2022/09/22 00:31:10;;;;;;;14.05;9.07;;;10.10;99.90;;;;;;4972061;28;20592;-73
2022/09/22 00:33:37;;;;;;;16.92;8.85;;;10.10;99.90;;;;;;4974453;28;20050;-74
2022/09/22 00:36:03;;;;;;;10.80;8.18;;;10.10;99.90;;;;;;4973486;28;20502;-73
2022/09/22 00:38:30;;;;;;;11.45;8.70;;;10.10;99.90;;;;;;4974610;28;20498;-73
2022/09/22 00:40:56;;;;;;;12.95;8.10;;;10.20;99.90;;;;;;4975562;28;20062;-73
2022/09/22 00:43:24;;;;;;;16.05;7.90;;;10.10;99.90;;;;;;4974964;28;20105;-73
2022/09/22 00:46:15;;;;;;;15.00;7.28;;;10.00;99.90;;;;;;4973996;28;20047;-73
2022/09/22 00:48:47;;;;;;;9.57;7.40;;;10.10;99.90;;;;;;4975377;28;20043;-74
2022/09/22 00:51:15;;;;;;;8.80;7.28;;;10.10;99.90;;;;;;4975215;28;20047;-73
2022/09/22 00:53:41;;;;;;;13.27;7.68;;;10.10;99.90;;;;;;4974310;28;20051;-73
2022/09/22 00:56:19;;;;;;;13.80;7.63;;;10.10;99.90;;;;;;4989792;28;20054;-72
2022/09/22 00:58:53;;;;;;;12.43;7.05;;;10.10;99.90;;;;;;4975277;28;20051;-73
2022/09/22 01:01:19;;;;;;;15.32;7.00;;;10.00;99.90;;;;;;4973812;28;20047;-73
2022/09/22 01:03:46;;;;;;;9.55;6.78;;;10.00;99.90;;;;;;4974859;28;20050;-73
2022/09/22 01:06:19;;;;;;;11.05;6.82;;;10.00;99.90;;;;;;4974531;28;20100;-73
2022/09/22 01:08:45;;;;;;;15.63;7.40;;;10.00;99.90;;;;;;4974963;28;20047;-73
2022/09/22 01:11:14;;;;;;;9.32;6.38;;;10.00;99.90;;;;;;4989585;28;20054;-73
2022/09/22 01:14:01;;;;;;;9.98;6.53;;;10.00;99.90;;;;;;4974712;28;20050;-73
2022/09/22 01:16:39;;;;;;;10.38;6.13;;;9.90;99.90;;;;;;4989335;28;20112;-73
2022/09/22 01:19:30;;;;;;;10.55;6.60;;;9.90;99.90;;;;;;4989776;28;20062;-73
2022/09/22 01:22:16;;;;;;;10.38;6.32;;;9.90;99.90;;;;;;4974647;28;20051;-72
2022/09/22 01:25:00;;;;;;;9.25;6.05;;;9.90;99.90;;;;;;4989065;28;20645;-73
2022/09/22 01:27:29;;;;;;;10.52;5.82;;;9.90;99.90;;;;;;4973229;28;20046;-72
2022/09/22 01:30:19;;;;;;;7.38;5.75;;;9.90;99.90;;;;;;4989663;28;20490;-72
2022/09/22 01:33:21;;;;;;;9.70;5.70;;;9.80;99.90;;;;;;4974642;28;20051;-73
2022/09/22 01:35:46;;;;;;;9.35;5.60;;;9.80;99.90;;;;;;4972433;28;20055;-73
2022/09/22 01:38:16;;;;;;;7.65;5.22;;;9.80;99.90;;;;;;4974037;28;20046;-73
2022/09/22 01:40:49;;;;;;;10.20;5.53;;;9.70;99.90;;;;;;4989298;28;20051;-74
2022/09/22 01:43:39;;;;;;;9.63;6.28;;;9.70;99.90;;;;;;4973949;28;20099;-73
2022/09/22 01:46:21;;;;;;;9.35;5.45;;;9.70;99.90;;;;;;4974371;28;20043;-73
2022/09/22 01:48:50;;;;;;;9.63;5.28;;;9.70;99.90;;;;;;4989032;28;20391;-73
2022/09/22 01:51:29;;;;;;;10.05;5.47;;;9.70;99.90;;;;;;4973803;28;20121;-73
2022/09/22 01:54:27;;;;;;;8.75;5.43;;;9.70;99.90;;;;;;4974290;28;20043;-72
2022/09/22 01:57:02;;;;;;;10.07;5.60;;;9.60;99.90;;;;;;4974147;28;20046;-72
2022/09/22 01:59:32;;;;;;;7.32;4.97;;;9.60;99.90;;;;;;4973474;28;20047;-73
2022/09/22 02:02:08;;;;;;;8.93;5.80;;;9.60;99.90;;;;;;4973890;28;20502;-72
2022/09/22 02:04:42;;;;;;;10.27;5.50;;;9.50;99.90;;;;;;4988499;28;20051;-72
2022/09/22 02:07:14;;;;;;;8.63;5.33;;;9.50;99.90;;;;;;4973883;28;20051;-72
2022/09/22 02:09:41;;;;;;;6.93;4.80;;;9.50;99.90;;;;;;4973797;28;20285;-73
2022/09/22 02:12:07;;;;;;;10.93;4.85;;;9.50;99.90;;;;;;4973666;28;20051;-73
2022/09/22 02:14:33;;;;;;;8.57;4.95;;;9.50;99.90;;;;;;4972231;28;20486;-73
2022/09/22 02:16:59;;;;;;;8.60;4.70;;;9.40;99.90;;;;;;4972434;28;20109;-73
2022/09/22 02:19:38;;;;;;;9.20;4.88;;;9.40;99.90;;;;;;4973117;28;20485;-73
2022/09/22 02:22:05;;;;;;;8.07;4.55;;;9.50;99.90;;;;;;4973493;28;20042;-73
2022/09/22 02:24:36;;;;;;;11.07;5.22;;;9.40;99.90;;;;;;4971947;28;20457;-72
2022/09/22 02:27:13;;;;;;;11.50;5.00;;;9.40;99.90;;;;;;4973733;28;20055;-73
2022/09/22 02:29:43;;;;;;;6.97;4.57;;;9.40;99.90;;;;;;4973010;28;20046;-72
2022/09/22 02:32:15;;;;;;;10.13;4.75;;;9.40;99.90;;;;;;4988451;28;20383;-72
2022/09/22 02:34:44;;;;;;;8.00;4.75;;;9.40;99.90;;;;;;4972246;28;20069;-73
2022/09/22 02:37:23;;;;;;;7.97;4.60;;;9.40;99.90;;;;;;4973332;28;20105;-72
2022/09/22 02:39:55;;;;;;;8.98;4.57;;;9.20;99.90;;;;;;4973358;28;20046;-72
2022/09/22 02:42:33;;;;;;;10.52;4.80;;;9.30;99.90;;;;;;4972746;28;20085;-72
2022/09/22 02:45:05;;;;;;;7.22;4.50;;;9.30;99.90;;;;;;4973219;28;20092;-72
2022/09/22 02:47:56;;;;;;;7.95;5.10;;;9.30;99.90;;;;;;4987851;28;20051;-72
2022/09/22 02:50:24;;;;;;;12.55;4.55;;;9.30;99.90;;;;;;4972636;28;20053;-73
2022/09/22 02:52:52;;;;;;;11.02;4.60;;;9.30;99.90;;;;;;4973079;28;20050;-72
2022/09/22 02:55:18;;;;;;;7.15;4.70;;;9.20;99.90;;;;;;4971360;28;20046;-72
2022/09/22 02:57:44;;;;;;;8.60;5.05;;;9.20;99.90;;;;;;4972868;28;20098;-73
2022/09/22 03:00:10;;;;;;;6.25;4.35;;;9.20;99.90;;;;;;4971862;28;20046;-73
2022/09/22 03:02:36;;;;;;;7.38;4.50;;;9.10;99.90;;;;;;4972430;28;20058;-72
2022/09/22 03:05:02;;;;;;;10.38;4.80;;;9.20;99.90;;;;;;4972834;28;20406;-73
2022/09/22 03:07:28;;;;;;;10.15;5.07;;;9.10;99.90;;;;;;4971223;28;20043;-72
2022/09/22 03:09:54;;;;;;;8.32;4.13;;;9.10;99.90;;;;;;4971588;28;20444;-73
2022/09/22 03:12:19;;;;;;;8.98;4.80;;;9.10;99.90;;;;;;4987794;28;20453;-72
2022/09/22 03:14:45;;;;;;;9.60;4.47;;;9.10;99.90;;;;;;4972351;28;20082;-73
2022/09/22 03:17:11;;;;;;;9.15;4.47;;;9.10;99.90;;;;;;4972538;28;20093;-73
2022/09/22 03:19:36;;;;;;;8.10;4.30;;;9.10;99.90;;;;;;4970770;28;20055;-73
2022/09/22 03:22:02;;;;;;;10.23;4.10;;;9.10;99.90;;;;;;4971211;28;20051;-72
2022/09/22 03:24:28;;;;;;;5.63;4.13;;;9.10;99.90;;;;;;4986883;28;20654;-72
2022/09/22 03:26:54;;;;;;;6.45;4.07;;;9.10;99.90;;;;;;4972634;28;20066;-72
2022/09/22 03:29:19;;;;;;;7.45;3.70;;;9.10;99.90;;;;;;4971486;28;20185;-72
2022/09/22 03:31:45;;;;;;;9.73;3.70;;;9.00;99.90;;;;;;4971042;28;20074;-72
2022/09/22 03:34:11;;;;;;;5.55;3.35;;;9.00;99.90;;;;;;4972385;28;20065;-71
2022/09/22 03:36:36;;;;;;;7.85;3.63;;;9.00;99.90;;;;;;4971123;28;20074;-72
2022/09/22 03:39:02;;;;;;;10.75;4.05;;;9.00;99.90;;;;;;4972420;28;20413;-73
2022/09/22 03:41:28;;;;;;;5.63;3.50;;;9.00;99.90;;;;;;4972221;28;20490;-73
2022/09/22 03:43:54;;;;;;;7.30;3.63;;;8.90;99.90;;;;;;4987692;28;20058;-72
2022/09/22 03:46:19;;;;;;;7.25;3.88;;;9.00;99.90;;;;;;4972392;28;20073;-73
2022/09/22 03:48:45;;;;;;;6.33;3.33;;;8.90;99.90;;;;;;4971984;28;20602;-72
2022/09/22 03:51:11;;;;;;;6.82;3.90;;;8.90;99.90;;;;;;4972102;28;20298;-73
2022/09/22 03:53:37;;;;;;;7.22;3.70;;;8.90;99.90;;;;;;4971840;28;20054;-73
2022/09/22 03:56:12;;;;;;;7.47;3.90;;;8.90;99.90;;;;;;4972196;28;20086;-72
2022/09/22 03:58:38;;;;;;;10.32;4.15;;;8.80;99.90;;;;;;4971959;28;20086;-73
2022/09/22 04:01:05;;;;;;;8.52;4.05;;;8.90;99.90;;;;;;4972184;28;20141;-72
2022/09/22 04:03:32;;;;;;;8.10;3.80;;;8.80;99.90;;;;;;4970334;28;20068;-72
2022/09/22 04:05:59;;;;;;;9.23;4.28;;;8.80;99.90;;;;;;4987425;28;20047;-73
2022/09/22 04:08:24;;;;;;;6.50;3.58;;;8.80;99.90;;;;;;4976010;28;20050;-72
2022/09/22 04:10:50;;;;;;;7.18;3.80;;;8.80;99.90;;;;;;4974232;28;20085;-72
2022/09/22 04:13:16;;;;;;;8.20;3.42;;;8.80;99.90;;;;;;4976097;28;20046;-73
2022/09/22 04:15:43;;;;;;;6.13;3.70;;;8.80;99.90;;;;;;4975408;28;20050;-72
2022/09/22 04:18:11;;;;;;;7.60;3.25;;;8.80;99.90;;;;;;4974895;28;20061;-73
2022/09/22 04:20:39;;;;;;;9.63;3.88;;;8.80;99.90;;;;;;4974468;28;20051;-72
2022/09/22 04:23:05;;;;;;;5.95;3.45;;;8.80;99.90;;;;;;4975844;28;20051;-72
2022/09/22 04:25:31;;;;;;;6.68;3.40;;;8.80;99.90;;;;;;4974926;28;20043;-73
2022/09/22 04:27:57;;;;;;;7.10;3.60;;;8.80;99.90;;;;;;4975719;28;20074;-72
2022/09/22 04:30:23;;;;;;;6.45;3.55;;;8.70;99.90;;;;;;4974720;28;20054;-72
2022/09/22 04:32:49;;;;;;;13.68;4.55;;;8.70;99.90;;;;;;4958243;28;20047;-72
2022/09/22 04:35:15;;;;;;;5.40;3.40;;;8.70;99.90;;;;;;4975162;28;20043;-73
2022/09/22 04:37:41;;;;;;;8.02;3.55;;;8.60;99.90;;;;;;4973986;28;20402;-73
2022/09/22 04:40:10;;;;;;;8.68;4.47;;;8.60;99.90;;;;;;4975387;28;20042;-74
2022/09/22 04:42:37;;;;;;;6.32;3.55;;;8.60;99.90;;;;;;4975114;28;20050;-73
2022/09/22 04:45:05;;;;;;;8.60;3.78;;;8.60;99.90;;;;;;4990246;28;20558;-73
2022/09/22 04:47:32;;;;;;;8.90;3.92;;;8.50;99.90;;;;;;4975333;28;20406;-73
2022/09/22 04:49:58;;;;;;;11.68;3.80;;;8.50;99.90;;;;;;4974224;28;20042;-72
2022/09/22 04:52:24;;;;;;;5.93;3.45;;;8.50;99.90;;;;;;4974304;28;20073;-73
2022/09/22 04:54:50;;;;;;;7.38;3.63;;;8.50;99.90;;;;;;4973751;28;20057;-73
2022/09/22 04:57:16;;;;;;;7.15;3.88;;;8.50;99.90;;;;;;4974391;28;20130;-73
2022/09/22 04:59:42;;;;;;;7.78;3.88;;;8.50;99.90;;;;;;4974732;28;20391;-72
2022/09/22 05:02:08;;;;;;;7.38;4.22;;;8.50;99.90;;;;;;4975136;28;20073;-73
2022/09/22 05:04:34;;;;;;;5.63;3.55;;;8.50;99.90;;;;;;4973619;28;20111;-72
2022/09/22 05:07:00;;;;;;;9.70;4.18;;;8.40;99.90;;;;;;4989158;28;20593;-72
2022/09/22 05:09:25;;;;;;;8.20;4.15;;;8.40;99.90;;;;;;4989738;28;20046;-72
2022/09/22 05:11:52;;;;;;;9.27;4.03;;;8.40;99.90;;;;;;4974268;28;20055;-74
2022/09/22 05:14:18;;;;;;;9.30;4.10;;;8.40;99.90;;;;;;4973600;28;20063;-72
2022/09/22 05:16:43;;;;;;;8.50;4.40;;;8.40;99.90;;;;;;4973859;28;20387;-72
2022/09/22 05:19:09;;;;;;;8.07;4.15;;;8.40;99.90;;;;;;4974439;28;20078;-73
2022/09/22 05:21:35;;;;;;;8.90;4.32;;;8.30;99.90;;;;;;4974412;28;20050;-72
2022/09/22 05:24:02;;;;;;;6.90;4.13;;;8.40;99.90;;;;;;4973988;28;20115;-73
2022/09/22 05:26:29;;;;;;;9.98;4.15;;;8.40;99.90;;;;;;4974371;28;20422;-72
2022/09/22 05:28:56;;;;;;;6.43;4.63;;;8.40;99.90;;;;;;4988970;28;20047;-73
2022/09/22 05:31:22;;;;;;;;;;;8.40;99.90;;;;;;4989586;28;20054;-72
2022/09/22 05:33:48;;;;;;;8.68;4.05;;;8.30;99.90;;;;;;4973665;28;20059;-73
2022/09/22 05:36:14;;;;;;;8.43;4.00;;;8.30;99.90;;;;;;4974166;28;20057;-73
2022/09/22 05:38:39;;;;;;;7.97;4.40;;;8.30;99.90;;;;;;4988596;28;20050;-72
2022/09/22 05:41:05;;;;;;;8.48;4.63;;;8.30;99.90;;;;;;4974421;28;20050;-73
2022/09/22 05:43:31;;;;;;;8.63;5.03;;;8.40;99.90;;;;;;4973901;28;20189;-73
2022/09/22 05:45:57;;;;;;;6.80;4.35;;;8.40;99.90;;;;;;4972632;28;20109;-72
2022/09/22 05:48:22;;;;;;;9.60;4.53;;;8.40;99.90;;;;;;4974097;28;20058;-72
2022/09/22 05:50:48;;;;;;;8.90;5.00;;;8.50;99.90;;;;;;4973676;28;20046;-73
2022/09/22 05:53:15;;;;;;;8.80;4.80;;;8.50;99.90;;;;;;4974001;28;20043;-72
2022/09/22 05:55:41;;;;;;;8.35;4.95;;;8.60;99.90;;;;;;4973600;28;20390;-72
2022/09/22 05:58:10;;;;;;;13.15;4.93;;;8.60;99.90;;;;;;4973785;28;20125;-73
2022/09/22 06:00:37;;;;;;;10.25;5.57;;;8.60;99.90;;;;;;4973768;28;20122;-72
2022/09/22 06:03:03;;;;;;;10.80;5.53;;;8.70;99.90;;;;;;4973584;28;20042;-72
2022/09/22 06:05:29;;;;;;;11.80;5.43;;;8.70;99.90;;;;;;4973186;28;20047;-70
2022/09/22 06:08:02;;;;;;;9.43;5.22;;;8.70;99.90;;;;;;4973663;28;20068;-73
2022/09/22 06:10:32;;;;;;;10.52;5.88;;;8.70;99.90;;;;;;4973881;28;20051;-72
2022/09/22 06:12:59;;;;;;;9.70;5.50;;;8.80;99.90;;;;;;4972638;28;20496;-73
2022/09/22 06:15:26;;;;;;;9.93;5.25;;;8.80;99.90;;;;;;4972751;28;20055;-73
2022/09/22 06:17:52;;;;;;;10.90;6.03;;;8.90;99.90;;;;;;4972445;28;20126;-72
2022/09/22 06:20:17;;;;;;;12.68;5.80;;;8.90;99.90;;;;;;4956323;28;20259;-72
2022/09/22 06:22:43;;;;;;;9.18;5.70;;;9.00;99.90;;;;;;4972437;28;20058;-72
2022/09/22 06:25:10;;;;;;;7.15;5.05;;;9.10;99.90;;;;;;4972054;28;20050;-72
2022/09/22 06:27:36;;;;;;;15.40;6.07;;;9.10;99.90;;;;;;4972123;28;20390;-72
2022/09/22 06:30:03;;;;;;;11.20;5.72;;;9.10;99.90;;;;;;4987548;28;20046;-72
2022/09/22 06:32:28;;;;;;;14.98;6.68;;;9.20;99.90;;;;;;4973329;28;20047;-72
2022/09/22 06:34:54;;;;;;;12.90;6.20;;;9.20;99.90;;;;;;4972626;28;20050;-75
2022/09/22 06:37:21;;;;;;;16.30;6.85;;;9.30;99.90;;;;;;4972566;28;20086;-75
2022/09/22 06:39:46;;;;;;;13.73;6.60;;;9.30;99.90;;;;;;4972134;28;20055;-73
2022/09/22 06:42:16;;;;;;;16.45;7.03;;;9.40;99.90;;;;;;4988061;28;20077;-74
2022/09/22 06:44:43;;;;;;;15.68;6.80;;;9.50;99.90;;;;;;4973178;28;20126;-73
2022/09/22 06:47:10;;;;;;;19.80;6.53;;;9.60;99.90;;;;;;4971656;28;20253;-72
2022/09/22 06:49:35;;;;;;;14.63;6.68;;;9.60;99.90;;;;;;4972114;28;20061;-72
2022/09/22 06:52:01;;;;;;;12.50;6.80;;;9.70;99.90;;;;;;4971622;28;20397;-72
2022/09/22 06:54:27;;;;;;;12.30;6.30;;;9.70;99.90;;;;;;4971877;28;20073;-73
2022/09/22 06:56:53;;;;;;;12.02;6.32;;;9.80;99.90;;;;;;4971630;28;20050;-72
2022/09/22 06:59:18;;;;;;;17.17;6.50;;;9.80;99.90;;;;;;4973281;28;20062;-73
2022/09/22 07:01:44;;;;;;;13.18;6.22;;;10.00;99.90;;;;;;4972029;28;20047;-74
2022/09/22 07:04:11;;;;;;;10.57;5.45;;;10.30;99.90;;;;;;4987281;28;20046;-73
2022/09/22 07:06:39;;;;;;;11.07;6.15;;;10.40;99.90;;;;;;4971653;28;20498;-74
2022/09/22 07:09:06;;;;;;;9.05;5.55;;;10.40;99.90;;;;;;4971450;28;20516;-74
2022/09/22 07:11:32;;;;;;;8.95;5.63;;;10.40;99.90;;;;;;4972765;28;20509;-72
2022/09/22 07:13:58;;;;;;;11.00;5.55;;;10.50;99.90;;;;;;4972440;28;20085;-73
2022/09/22 07:16:25;;;;;;;9.93;5.85;;;10.60;99.90;;;;;;4955692;28;20082;-74
2022/09/22 07:18:53;;;;;;;9.07;5.22;;;10.60;99.90;;;;;;4987587;28;20061;-74
2022/09/22 07:21:25;;;;;;;10.18;5.95;;;10.70;99.90;;;;;;4972313;28;20089;-73
2022/09/22 07:23:53;;;;;;;12.27;5.68;;;10.80;99.90;;;;;;4987330;28;20090;-73
2022/09/22 07:26:27;;;;;;;8.57;5.15;;;11.00;99.90;;;;;;4971592;28;20051;-73
2022/09/22 07:28:54;;;;;;;9.05;4.80;;;11.00;99.90;;;;;;4972546;28;20050;-72
2022/09/22 07:31:22;;;;;;;9.70;4.43;;;11.20;99.90;;;;;;4972441;28;20437;-74
2022/09/22 07:33:48;;;;;;;10.30;4.80;;;11.40;99.90;;;;;;4972415;28;20054;-75
2022/09/22 07:36:22;;;;;;;8.82;4.22;;;11.70;99.90;;;;;;4954872;28;20693;-74
2022/09/22 07:38:50;;;;;;;11.48;4.15;;;12.50;99.90;;;;;;4972445;28;20050;-74
2022/09/22 07:41:21;;;;;;;7.00;4.18;;;13.60;99.90;;;;;;4973439;28;20054;-73
2022/09/22 07:43:54;;;;;;;6.05;4.32;;;15.10;99.90;;;;;;4975073;28;20062;-75
2022/09/22 07:46:21;;;;;;;8.55;4.40;;;16.40;99.90;;;;;;4976375;28;20189;-75
2022/09/22 07:48:47;;;;;;;7.80;3.53;;;17.60;99.90;;;;;;4976585;28;20490;-75
2022/09/22 07:51:18;;;;;;;12.48;3.80;;;18.70;99.90;;;;;;4976013;28;20053;-74
2022/09/22 07:53:45;;;;;;;5.72;3.50;;;;;;;;;;4975991;28;20501;-75
2022/09/22 07:56:14;;;;;;;9.02;3.13;;;19.60;99.90;;;;;;4975739;28;20043;-74
2022/09/22 07:58:45;;;;;;;7.03;3.35;;;21.40;98.10;;;;;;4974938;28;20051;-75
2022/09/22 08:01:11;;;;;;;9.82;3.60;;;22.20;99.90;;;;;;4974662;28;20486;-76
2022/09/22 08:03:38;;;;;;;6.43;3.10;;;22.80;97.10;;;;;;4975920;28;20555;-76
2022/09/22 08:06:10;;;;;;;5.35;2.90;;;23.40;97.50;;;;;;4975528;28;20054;-75
2022/09/22 08:08:41;;;;;;;7.13;2.95;;;;;;;;;;4976093;28;20054;-75
2022/09/22 08:11:11;;;;;;;7.55;3.08;;;;;;;;;;4975736;28;20055;-74
2022/09/22 08:13:38;;;;;;;6.68;2.85;;;23.70;93.30;;;;;;4976437;28;20051;-78
2022/09/22 08:16:04;;;;;;;5.95;2.65;;;25.30;89.10;;;;;;4975633;28;20050;-75
2022/09/22 08:18:32;;;;;;;7.82;2.65;;;25.70;92.00;;;;;;4972906;28;20068;-76
2022/09/22 08:21:00;;;;;;;7.20;2.78;;;25.90;89.50;;;;;;4968039;28;20153;-73
2022/09/22 08:23:28;;;;;;;7.68;2.50;;;26.10;85.70;;;;;;4969517;28;20097;-73
2022/09/22 08:25:54;;;;;;;4.13;2.28;;;26.10;86.40;;;;;;4969484;28;20661;-76
2022/09/22 08:28:19;;;;;;;6.85;2.70;;;26.20;84.90;;;;;;4957121;28;20046;-75
2022/09/22 08:30:46;;;;;;;8.05;2.30;;;26.60;89.50;;;;;;4970267;28;20486;-75
2022/09/22 08:33:12;;;;;;;5.35;2.13;;;26.80;86.20;;;;;;4969203;28;20058;-72
2022/09/22 08:35:38;;;;;;;4.80;2.30;;;26.70;83.10;;;;;;4971420;28;20050;-76
2022/09/22 08:38:04;;;;;;;6.40;2.63;;;26.60;83.80;;;;;;4968362;28;20107;-74
2022/09/22 08:40:30;;;;;;;4.15;2.17;;;26.60;85.90;;;;;;4975276;28;20074;-72
2022/09/22 08:42:59;;;;;;;5.57;2.38;;;26.70;82.80;;;;;;4975658;28;20054;-70
2022/09/22 08:45:37;;;;;;;6.45;2.45;;;26.40;81.60;;;;;;4973597;28;20051;-69
2022/09/22 08:53:56;;;;;;;6.22;2.38;;;26.20;82.10;;;;;;4975018;28;20065;-75
2022/09/22 08:56:34;;;;;;;5.05;2.28;;;26.50;84.80;;;;;;4974859;28;20046;-75
2022/09/22 08:59:07;;;;;;;4.70;2.03;;;26.60;81.40;;;;;;4975095;28;20573;-77
2022/09/22 09:02:00;;;;;;;5.60;2.08;;;27.10;80.50;;;;;;4975116;28;20050;-77
2022/09/22 09:04:56;;;;;;;5.47;1.65;;;26.90;80.40;;;;;;4974253;28;20494;-75
2022/09/22 09:07:42;;;;;;;5.80;2.10;;;26.80;79.70;;;;;;4975424;28;20133;-78
2022/09/22 09:10:25;;;;;;;4.20;2.00;;;26.30;79.40;;;;;;4975188;28;20043;-75
2022/09/22 09:13:20;;;;;;;4.28;1.80;;;25.20;80.30;;;;;;4976030;28;20058;-76
2022/09/22 09:16:19;;;;;;;4.47;1.95;;;24.20;80.60;;;;;;4976247;28;20211;-77
2022/09/22 09:19:07;;;;;;;4.93;2.20;;;23.40;81.90;;;;;;4974952;28;20053;-76
2022/09/22 09:21:36;;;;;;;5.15;2.05;;;22.90;83.30;;;;;;4945056;28;20059;-77
2022/09/22 09:24:09;;;;;;;6.63;2.00;;;22.40;84.40;;;;;;4974795;28;20506;-77
2022/09/22 09:26:35;;;;;;;4.60;1.97;;;21.90;84.80;;;;;;4974775;28;20527;-77
2022/09/22 09:29:05;;;;;;;4.80;2.00;;;21.50;84.30;;;;;;4973179;28;20050;-76
2022/09/22 09:31:40;;;;;;;6.20;2.15;;;21.20;86.10;;;;;;4973024;28;20147;-75
2022/09/22 09:34:12;;;;;;;4.10;1.67;;;20.90;86.70;;;;;;4973908;28;20086;-72
2022/09/22 09:36:41;;;;;;;6.78;2.40;;;20.80;86.40;;;;;;4974038;28;20482;-74
2022/09/22 09:39:12;;;;;;;9.68;2.20;;;20.70;87.70;;;;;;4973941;28;20062;-71
2022/09/22 09:41:39;;;;;;;5.88;2.15;;;20.50;88.20;;;;;;4973319;28;20054;-73
2022/09/22 09:44:05;;;;;;;5.03;2.03;;;20.40;87.70;;;;;;4973077;28;20047;-75
2022/09/22 09:46:55;;;;;;;7.55;2.30;;;20.30;88.30;;;;;;4973549;28;20162;-72
2022/09/22 09:49:22;;;;;;;3.33;1.85;;;20.20;89.40;;;;;;4973379;28;20140;-73
2022/09/22 09:51:57;;;;;;;5.90;1.90;;;20.30;88.20;;;;;;4974095;28;20527;-72
2022/09/22 09:54:24;;;;;;;3.67;1.70;;;20.30;89.00;;;;;;4973585;28;20049;-72
2022/09/22 09:57:10;;;;;;;6.65;2.08;;;20.20;88.60;;;;;;4972716;28;20069;-71
2022/09/22 10:02:31;;;;;;;4.97;1.60;;;20.00;86.40;;;;;;4973792;28;20121;-73
2022/09/22 10:05:03;;;;;;;5.53;1.63;;;19.90;87.50;;;;;;4972630;28;20050;-72
2022/09/22 10:07:47;;;;;;;4.50;1.85;;;19.80;88.50;;;;;;4973313;28;20055;-71
2022/09/22 10:10:28;;;;;;;7.20;2.00;;;19.80;89.10;;;;;;4988367;28;20121;-69
2022/09/22 10:13:03;;;;;;;4.13;1.70;;;19.70;89.30;;;;;;4973668;28;20063;-69
2022/09/22 10:15:31;;;;;;;5.50;1.70;;;19.70;89.40;;;;;;4973421;28;20042;-68
2022/09/22 10:17:57;;;;;;;6.40;2.15;;;19.70;89.90;;;;;;4973824;28;20090;-69
2022/09/22 10:20:30;;;;;;;5.03;1.98;;;19.70;89.20;;;;;;4988236;28;20085;-69
2022/09/22 10:23:20;;;;;;;3.65;1.98;;;19.80;88.80;;;;;;4973582;28;20101;-68
2022/09/22 10:25:47;;;;;;;3.63;1.65;;;19.80;88.60;;;;;;4973422;28;20046;-68
2022/09/22 10:28:18;;;;;;;4.40;1.90;;;19.70;88.20;;;;;;4973361;28;20050;-70
2022/09/22 10:30:57;;;;;;;4.00;2.22;;;19.60;89.90;;;;;;4972212;28;20090;-68
2022/09/22 10:33:23;;;;;;;5.60;2.38;;;19.60;89.80;;;;;;4972960;28;20070;-68
2022/09/22 10:36:02;;;;;;;3.10;1.90;;;19.60;90.00;;;;;;4972176;28;20050;-67
2022/09/22 10:38:28;;;;;;;4.97;2.40;;;19.70;89.30;;;;;;4972756;28;20049;-69
2022/09/22 10:41:11;;;;;;;5.43;2.33;;;19.60;89.10;;;;;;4973298;28;20045;-69
2022/09/22 10:43:45;;;;;;;6.05;2.22;;;19.60;89.50;;;;;;4973044;28;20050;-69
2022/09/22 10:46:31;;;;;;;7.88;2.40;;;19.60;89.20;;;;;;4973216;28;20047;-67
2022/09/22 10:49:30;;;;;;;4.50;2.10;;;19.70;90.00;;;;;;4972205;28;20067;-68
2022/09/22 13:33:46;;;;;;;9.10;3.58;;;19.50;86.30;;;;;;5107201;27;20108;-70
2022/09/22 13:36:15;;;;;;;7.10;3.83;;;19.50;87.70;;;;;;5106180;28;20415;-67
2022/09/22 13:38:43;;;;;;;7.18;3.85;;;19.50;89.20;;;;;;5100694;28;20556;-70
2022/09/22 13:41:12;;;;;;;7.18;4.00;;;19.50;88.70;;;;;;5090426;28;20054;-69
2022/09/22 13:43:41;;;;;;;7.80;4.35;;;19.30;87.40;;;;;;5089811;28;20036;-68
2022/09/22 13:46:18;;;;;;;7.53;3.65;;;19.30;87.90;;;;;;5105795;28;20547;-69
2022/09/22 13:48:44;;;;;;;6.32;3.60;;;19.20;89.20;;;;;;5104603;28;20058;-68
2022/09/22 13:51:13;;;;;;;11.77;4.10;;;19.20;88.30;;;;;;5093591;28;20115;-69
2022/09/22 13:53:45;;;;;;;8.50;3.83;;;19.30;88.00;;;;;;5102207;28;20105;-70
2022/09/22 13:56:14;;;;;;;8.27;3.40;;;19.30;88.50;;;;;;5092179;28;20048;-70
2022/09/22 13:58:42;;;;;;;7.00;3.30;;;19.30;88.00;;;;;;5086562;28;20127;-70
2022/09/22 14:01:16;;;;;;;8.60;3.05;;;19.40;87.80;;;;;;5067762;28;20097;-68
2022/09/22 14:03:42;;;;;;;7.20;3.30;;;19.40;86.70;;;;;;5055090;28;20046;-68
2022/09/22 14:06:21;;;;;;;7.93;4.00;;;19.40;87.70;;;;;;5102398;28;20473;-68
2022/09/22 14:08:48;;;;;;;8.00;3.85;;;19.40;88.20;;;;;;5086488;28;20052;-67
2022/09/22 14:11:20;;;;;;;10.25;5.07;;;19.30;88.30;;;;;;5083235;28;20052;-68
2022/09/22 14:13:52;;;;;;;8.35;3.50;;;19.30;88.00;;;;;;5085489;28;20117;-68
2022/09/22 14:16:36;;;;;;;6.00;3.50;;;19.30;88.00;;;;;;5083581;28;20052;-68
2022/09/22 14:19:13;;;;;;;7.88;4.80;;;19.20;88.80;;;;;;5084868;28;20052;-68
2022/09/22 14:21:45;;;;;;;7.38;4.40;;;19.10;88.40;;;;;;5084034;28;20044;-67
2022/09/22 14:24:12;;;;;;;7.88;4.20;;;19.00;88.60;;;;;;5081492;28;20055;-69
2022/09/22 14:26:43;;;;;;;7.10;3.80;;;18.90;88.90;;;;;;5082062;28;20177;-67
2022/09/22 14:29:21;;;;;;;9.60;4.10;;;18.80;89.40;;;;;;5085064;28;20052;-69
2022/09/22 14:31:52;;;;;;;10.48;5.00;;;18.80;88.90;;;;;;5084323;28;20131;-69
2022/09/22 14:34:26;;;;;;;6.72;3.72;;;18.90;88.90;;;;;;5075333;28;20113;-68
2022/09/22 14:36:53;;;;;;;7.38;3.85;;;18.90;88.80;;;;;;5085838;28;20056;-68
2022/09/22 14:39:32;;;;;;;11.25;4.28;;;18.90;88.80;;;;;;5079720;28;20500;-69
2022/09/22 14:42:07;;;;;;;7.72;4.22;;;18.90;88.30;;;;;;5081787;28;20119;-75
2022/09/22 14:44:34;;;;;;;7.70;3.90;;;18.90;88.50;;;;;;5071428;28;20152;-70
2022/09/22 14:47:08;;;;;;;5.82;3.53;;;18.80;89.10;;;;;;5071524;28;20059;-72
2022/09/22 14:49:35;;;;;;;8.80;3.67;;;18.80;89.10;;;;;;5061805;28;20037;-64
2022/09/22 14:52:05;;;;;;;6.55;3.42;;;18.80;89.00;;;;;;5062220;28;20408;-70
2022/09/22 14:54:33;;;;;;;5.43;4.00;;;18.80;89.00;;;;;;5079518;28;20039;-70
2022/09/22 14:57:04;;;;;;;8.23;4.22;;;18.70;89.60;;;;;;5063294;28;20045;-71
2022/09/22 15:02:31;;;;;;;10.25;3.95;;;18.70;89.60;;;;;;5072081;28;20041;-69
2022/09/22 15:04:58;;;;;;;9.05;3.60;;;18.70;90.00;;;;;;5069019;28;20460;-67
2022/09/22 15:07:28;;;;;;;7.55;3.83;;;18.70;90.00;;;;;;5070081;28;20087;-66
2022/09/22 15:09:57;;;;;;;9.35;4.25;;;18.70;89.00;;;;;;5067510;28;20493;-65
2022/09/22 15:12:39;;;;;;;6.13;3.40;;;18.60;89.70;;;;;;5066712;28;20119;-66
2022/09/22 15:15:23;;;;;;;9.15;3.33;;;18.60;89.90;;;;;;5061742;28;20052;-66
2022/09/22 15:20:58;;;;;;;4.82;2.80;;;18.60;89.40;;;;;;5069404;28;20052;-66
2022/09/22 15:23:34;;;;;;;5.88;3.22;;;18.50;89.30;;;;;;5063062;28;20040;-68
2022/09/22 15:26:02;;;;;;;7.13;3.42;;;18.50;89.80;;;;;;5063493;28;20060;-68
2022/09/22 15:28:29;;;;;;;7.25;3.20;;;18.50;90.00;;;;;;5067737;28;20060;-64
2022/09/22 15:30:56;;;;;;;6.72;3.15;;;18.50;90.00;;;;;;5069978;28;20135;-68
2022/09/22 15:33:22;;;;;;;9.00;3.15;;;18.50;90.10;;;;;;5077804;28;20049;-67
2022/09/22 15:35:53;;;;;;;7.05;2.90;;;18.50;90.00;;;;;;5062931;28;20040;-71
2022/09/22 15:38:28;;;;;;;6.97;3.53;;;18.40;90.20;;;;;;5065622;28;20052;-75
2022/09/22 15:40:54;;;;;;;6.63;3.50;;;18.50;90.00;;;;;;5069381;28;20060;-72
2022/09/22 15:43:22;;;;;;;10.23;3.40;;;18.40;90.00;;;;;;5068197;28;20044;-72
2022/09/22 15:45:54;;;;;;;8.93;3.20;;;18.40;90.10;;;;;;5071357;28;20109;-72
2022/09/22 15:48:22;;;;;;;6.10;2.75;;;18.40;90.20;;;;;;5061671;28;20045;-70
2022/09/22 15:50:48;;;;;;;6.90;3.60;;;18.40;90.40;;;;;;5065219;28;20576;-72
2022/09/22 15:53:14;;;;;;;7.47;3.10;;;18.40;90.40;;;;;;5069263;28;20180;-72
2022/09/22 15:55:41;;;;;;;6.53;2.85;;;18.50;90.10;;;;;;5068642;28;20055;-74
2022/09/22 15:58:11;;;;;;;7.53;3.20;;;18.40;90.10;;;;;;5067621;28;20044;-72
2022/09/22 16:00:37;;;;;;;6.00;2.70;;;18.30;90.30;;;;;;5070878;28;20382;-69
2022/09/22 16:03:23;;;;;;;5.38;2.92;;;18.40;90.20;;;;;;5069999;28;20052;-70